Terminal Aerodrome Forecast
Issued by NWS

Current Version | Previous Version | Graphics & Text | Print | Product List | Glossary Off
Versions: 1 2 3 4 5 6 7 8 9 10 11 12 13 14 15 16 17 18 19 20 21 22

000
FTUS41 KILN 251735 CCA
TAFLCK
TAF COR
KLCK 251735Z 2518/2618 VRB03KT P6SM SKC
     FM260000 12004KT P6SM SKC
     FM261000 16006KT P6SM VCSH SCT050 BKN100
     FM261500 26014G24KT P6SM -SHRA SCT015 OVC025=

USA.gov is the U.S. government's official web portal to all federal, state and local government web resources and services.